Time;durP1;ratioP1;P1;durP2;ratioP2;P2;SDS_P1;SDS_P2;PMS_P1;PMS_P2;Temp;Humidity;BMP_temperature;BMP_pressure;BME280_temperature;BME280_humidity;BME280_pressure;Samples;Min_cycle;Max_cycle;Signal;HPM_P1;HPM_P2
2022/05/27 00:00:23;;;;;;;6.30;2.17;;;;;;;15.94;100.00;101932.91;5234515;28;20037;-69
2022/05/27 00:02:55;;;;;;;4.47;2.03;;;;;;;15.93;100.00;101931.25;5236936;28;20078;-69
2022/05/27 00:05:26;;;;;;;5.65;2.22;;;;;;;15.91;100.00;101930.56;5237833;28;20076;-69
2022/05/27 00:07:57;;;;;;;5.32;2.30;;;;;;;15.96;100.00;101924.88;5237534;28;20387;-69
2022/05/27 00:10:29;;;;;;;5.57;2.15;;;;;;;15.91;100.00;101922.66;5235381;28;20729;-69
2022/05/27 00:13:01;;;;;;;5.57;2.65;;;;;;;15.97;100.00;101919.44;5234252;28;20053;-69
2022/05/27 00:15:32;;;;;;;6.20;2.20;;;;;;;15.87;100.00;101910.66;5234570;28;20420;-69
2022/05/27 00:18:04;;;;;;;6.72;2.30;;;;;;;15.92;100.00;101929.59;5237769;28;20492;-69
2022/05/27 00:20:36;;;;;;;4.50;1.92;;;;;;;15.90;100.00;101914.84;5218482;28;20473;-69
2022/05/27 00:23:08;;;;;;;7.88;2.08;;;;;;;15.91;100.00;101917.38;5235977;28;20439;-69
2022/05/27 00:25:40;;;;;;;12.55;2.45;;;;;;;15.89;100.00;101913.19;5218984;28;20102;-68
2022/05/27 00:28:11;;;;;;;7.30;2.97;;;;;;;15.84;100.00;101915.41;5216466;28;20025;-69
2022/05/27 00:30:43;;;;;;;7.47;2.15;;;;;;;15.87;100.00;101913.31;5234852;28;20048;-68
2022/05/27 00:33:14;;;;;;;7.60;2.40;;;;;;;15.89;100.00;101910.53;5235813;28;20164;-69
2022/05/27 00:35:45;;;;;;;5.60;2.25;;;;;;;15.89;100.00;101915.81;5237543;28;20036;-69
2022/05/27 00:38:18;;;;;;;6.22;2.42;;;;;;;15.91;100.00;101916.50;5236390;28;20512;-69
2022/05/27 00:40:54;;;;;;;;;;;;;;;16.34;100.00;101923.19;5235744;28;20033;-69
2022/05/27 00:43:26;;;;;;;7.10;2.10;;;;;;;15.92;100.00;101904.97;5236539;28;19955;-68
2022/05/27 00:46:05;;;;;;;6.63;2.03;;;;;;;15.94;100.00;101910.94;5235368;28;20021;-68
2022/05/27 00:48:39;;;;;;;7.07;2.28;;;;;;;15.85;100.00;101903.88;5235817;28;20037;-68
2022/05/27 00:51:16;;;;;;;;;;;;;;;16.33;100.00;101909.13;5236053;28;20563;-69
2022/05/27 00:54:05;;;;;;;7.97;2.60;;;;;;;16.03;100.00;101905.66;5234400;28;19917;-68
2022/05/27 00:56:40;;;;;;;7.20;2.20;;;;;;;15.92;100.00;101902.34;5234342;28;20026;-69
2022/05/27 00:59:18;;;;;;;7.25;2.78;;;;;;;15.87;100.00;101904.53;5236419;28;20033;-69
2022/05/27 01:01:51;;;;;;;5.15;2.75;;;;;;;15.85;100.00;101906.50;5234438;28;20025;-68
2022/05/27 01:04:24;;;;;;;8.27;3.28;;;;;;;15.80;100.00;101905.13;5235076;28;20456;-69
2022/05/27 01:06:55;;;;;;;6.28;2.38;;;;;;;15.77;100.00;101892.19;5235090;28;20036;-69
2022/05/27 01:09:29;;;;;;;7.25;2.85;;;;;;;15.73;100.00;101896.06;5235599;28;20029;-69
2022/05/27 01:12:37;;;;;;;8.52;2.47;;;;;;;15.74;100.00;101895.09;5236384;28;20028;-68
2022/05/27 01:15:27;;;;;;;8.88;3.10;;;;;;;15.72;100.00;101890.91;5218443;28;20065;-69
2022/05/27 01:18:07;;;;;;;6.10;2.90;;;;;;;15.60;100.00;101894.63;5233760;28;20044;-69
2022/05/27 01:20:46;;;;;;;9.93;3.28;;;;;;;15.56;100.00;101896.69;5218942;28;20065;-69
2022/05/27 01:23:49;;;;;;;9.07;3.67;;;;;;;15.75;100.00;101880.91;5218912;28;20117;-68
2022/05/27 01:26:50;;;;;;;8.98;3.47;;;;;;;15.64;100.00;101898.66;5234466;28;20396;-68
2022/05/27 01:29:43;;;;;;;8.73;3.10;;;;;;;15.50;100.00;101899.91;5217724;28;20053;-68
2022/05/27 01:32:22;;;;;;;9.23;3.25;;;;;;;15.47;100.00;101894.88;5218197;28;20033;-68
2022/05/27 01:35:02;;;;;;;10.50;3.55;;;;;;;15.45;100.00;101884.44;5234706;28;20814;-68
2022/05/27 01:37:45;;;;;;;8.02;3.30;;;;;;;15.38;100.00;101888.63;5233160;28;20025;-67
2022/05/27 01:40:24;;;;;;;11.75;3.63;;;;;;;15.39;100.00;101885.00;5221587;28;20059;-67
2022/05/27 01:43:15;;;;;;;8.65;3.83;;;;;;;15.34;100.00;101889.84;5224129;28;20474;-68
2022/05/27 01:46:00;;;;;;;9.50;3.58;;;;;;;15.30;100.00;101883.16;5224714;28;20034;-68
2022/05/27 01:48:39;;;;;;;8.40;3.53;;;;;;;15.27;100.00;101892.22;5223687;28;20044;-68
2022/05/27 01:51:27;;;;;;;9.55;3.92;;;;;;;15.26;100.00;101885.25;5224055;28;20496;-68
2022/05/27 01:54:14;;;;;;;11.23;4.35;;;;;;;15.31;100.00;101888.31;5224339;28;20429;-68
2022/05/27 01:56:52;;;;;;;9.65;4.10;;;;;;;15.23;100.00;101895.25;5224118;28;20409;-68
2022/05/27 01:59:30;;;;;;;9.30;4.40;;;;;;;15.13;100.00;101897.88;5223666;28;20073;-68
2022/05/27 02:02:10;;;;;;;7.57;3.58;;;;;;;15.10;100.00;101890.19;5221814;28;20025;-68
2022/05/27 02:04:47;;;;;;;10.38;4.32;;;;;;;15.09;100.00;101885.91;5221744;28;20484;-68
2022/05/27 02:07:47;;;;;;;8.80;4.32;;;;;;;15.26;100.00;101894.97;5221506;28;20412;-69
2022/05/27 02:10:30;;;;;;;10.20;4.40;;;;;;;15.11;100.00;101893.69;5223864;28;20046;-69
2022/05/27 02:13:14;;;;;;;12.27;4.72;;;;;;;15.06;100.00;101891.44;5224767;28;20366;-69
2022/05/27 02:15:48;;;;;;;13.70;5.40;;;;;;;14.89;100.00;101890.28;5219596;28;20099;-68
2022/05/27 02:18:34;;;;;;;10.10;4.95;;;;;;;14.98;100.00;101886.84;5204930;28;20036;-68
2022/05/27 02:21:14;;;;;;;8.70;4.88;;;;;;;14.88;100.00;101887.75;5220324;28;20045;-69
2022/05/27 02:24:07;;;;;;;11.27;4.78;;;;;;;14.84;100.00;101890.66;5222610;28;20032;-68
2022/05/27 02:26:45;;;;;;;13.77;5.80;;;;;;;14.89;100.00;101897.34;5175463;28;20042;-68
2022/05/27 02:29:22;;;;;;;12.35;5.72;;;;;;;14.82;100.00;101894.41;5222205;28;20068;-68
2022/05/27 02:31:57;;;;;;;13.18;5.43;;;;;;;14.78;100.00;101888.56;5222973;28;20121;-68
2022/05/27 02:37:33;;;;;;;11.73;5.43;;;;;;;14.82;100.00;101886.50;5224037;28;20521;-68
2022/05/27 02:40:13;;;;;;;11.18;5.50;;;;;;;14.78;100.00;101880.66;5234733;28;20044;-68
2022/05/27 02:42:57;;;;;;;11.85;5.80;;;;;;;14.74;100.00;101873.97;5234452;28;20037;-68
2022/05/27 02:45:46;;;;;;;9.00;4.90;;;;;;;14.85;100.00;101878.31;5234004;28;20080;-68
2022/05/27 02:48:45;;;;;;;9.18;5.95;;;;;;;14.91;100.00;101869.03;5218114;28;20052;-68
2022/05/27 02:52:06;;;;;;;10.32;5.97;;;;;;;14.94;100.00;101871.41;5234316;28;20096;-68
2022/05/27 02:54:48;;;;;;;13.38;6.85;;;;;;;14.76;100.00;101876.47;5193628;28;20389;-68
2022/05/27 02:57:26;;;;;;;8.97;5.57;;;;;;;14.69;100.00;101870.88;5235368;28;20123;-68
2022/05/27 03:00:06;;;;;;;8.15;6.07;;;;;;;14.70;100.00;101876.97;5236247;28;20022;-68
2022/05/27 03:02:37;;;;;;;9.32;6.20;;;;;;;14.56;100.00;101875.53;5232802;28;20290;-68
2022/05/27 03:05:08;;;;;;;10.77;6.65;;;;;;;14.58;100.00;101865.69;5234738;28;20031;-68
2022/05/27 03:07:53;;;;;;;9.07;6.50;;;;;;;14.71;100.00;101862.84;5215673;28;20420;-69
2022/05/27 03:10:51;;;;;;;12.13;7.32;;;;;;;14.70;100.00;101863.78;5238825;28;20037;-68
2022/05/27 03:13:44;;;;;;;12.43;7.03;;;;;;;14.59;100.00;101864.75;5239468;28;20108;-68
2022/05/27 03:16:39;;;;;;;7.47;6.45;;;;;;;14.72;100.00;101859.22;5238767;28;20105;-68
2022/05/27 03:19:44;;;;;;;10.48;7.28;;;;;;;14.67;100.00;101866.72;5238586;28;20735;-68
2022/05/27 03:22:24;;;;;;;15.05;7.30;;;;;;;14.54;100.00;101877.47;5238270;28;20073;-68
2022/05/27 03:25:13;;;;;;;10.32;7.70;;;;;;;14.66;100.00;101870.31;5238264;28;20061;-68
2022/05/27 03:27:48;;;;;;;10.32;6.88;;;;;;;14.61;100.00;101868.06;5237355;28;20116;-68
2022/05/27 03:30:27;;;;;;;12.25;7.35;;;;;;;14.61;100.00;101862.78;5238412;28;20459;-68
2022/05/27 03:33:05;;;;;;;8.95;7.60;;;;;;;14.67;100.00;101864.91;5238110;28;20487;-68
2022/05/27 03:35:46;;;;;;;9.63;8.02;;;;;;;14.68;100.00;101866.56;5236641;28;20458;-68
2022/05/27 03:38:28;;;;;;;10.23;8.18;;;;;;;14.72;100.00;101869.78;5238422;28;20152;-68
2022/05/27 03:41:26;;;;;;;8.13;7.20;;;;;;;14.83;100.00;101865.25;5218957;28;20506;-68
2022/05/27 03:43:57;;;;;;;12.40;8.63;;;;;;;14.64;100.00;101859.91;5236801;28;20365;-69
2022/05/27 03:46:32;;;;;;;9.98;8.95;;;;;;;14.71;100.00;101870.75;5238824;28;20020;-67
2022/05/27 03:49:05;;;;;;;12.80;9.07;;;;;;;14.64;100.00;101883.63;5221575;28;20384;-68
2022/05/27 03:51:46;;;;;;;11.90;9.55;;;;;;;14.67;100.00;101890.47;5236886;28;20037;-68
2022/05/27 03:54:17;;;;;;;10.02;8.70;;;;;;;14.57;100.00;101888.59;5218277;28;20022;-67
2022/05/27 03:56:49;;;;;;;7.95;6.78;;;;;;;14.60;100.00;101882.22;5237333;28;20018;-68
2022/05/27 03:59:22;;;;;;;5.88;3.92;;;;;;;14.54;100.00;101875.66;5238537;28;20040;-68
2022/05/27 04:01:55;;;;;;;6.73;4.07;;;;;;;14.53;100.00;101881.06;5234410;28;20037;-68
2022/05/27 04:04:28;;;;;;;;;;;;;;;15.05;100.00;101876.59;5238683;28;20404;-68
2022/05/27 04:06:59;;;;;;;4.28;2.60;;;;;;;14.57;100.00;101875.41;5236819;28;19913;-68
2022/05/27 04:09:33;;;;;;;5.43;3.42;;;;;;;14.56;100.00;101880.81;5236786;28;20055;-68
2022/05/27 04:12:05;;;;;;;6.95;3.78;;;;;;;14.53;100.00;101879.25;5238233;28;20484;-68
2022/05/27 04:14:36;;;;;;;5.95;3.85;;;;;;;14.54;100.00;101888.00;5220698;28;20025;-68
2022/05/27 04:20:13;;;;;;;8.85;5.00;;;;;;;14.60;100.00;101880.41;5235717;28;20033;-68
2022/05/27 04:22:44;;;;;;;7.38;6.43;;;;;;;14.62;100.00;101890.81;5236293;28;20061;-68
2022/05/27 04:25:16;;;;;;;8.60;6.55;;;;;;;14.64;100.00;101888.91;5236142;28;20080;-68
2022/05/27 04:27:47;;;;;;;8.00;6.30;;;;;;;14.66;100.00;101896.66;5234722;28;20049;-68
2022/05/27 04:30:19;;;;;;;8.93;6.47;;;;;;;14.69;100.00;101897.25;5236451;28;20037;-68
2022/05/27 04:32:50;;;;;;;7.10;6.18;;;;;;;14.72;100.00;101886.44;5218626;28;20076;-68
2022/05/27 04:35:22;;;;;;;9.30;6.65;;;;;;;14.77;100.00;101893.94;5236200;28;20103;-68
2022/05/27 04:37:53;;;;;;;9.80;7.15;;;;;;;14.79;100.00;101889.41;5236978;28;20025;-68
2022/05/27 04:40:25;;;;;;;8.65;7.25;;;;;;;14.82;100.00;101881.22;5235963;28;20034;-68
2022/05/27 04:42:57;;;;;;;9.98;7.70;;;;;;;14.85;100.00;101886.25;5234898;28;20053;-68
2022/05/27 04:45:29;;;;;;;9.70;7.15;;;;;;;14.86;100.00;101887.06;5237593;28;20025;-68
2022/05/27 04:48:01;;;;;;;10.38;7.38;;;;;;;14.92;100.00;101890.00;5237392;28;20032;-67
2022/05/27 04:50:33;;;;;;;10.50;7.10;;;;;;;14.94;100.00;101880.16;5237064;28;20180;-68
2022/05/27 04:53:04;;;;;;;10.98;7.95;;;;;;;14.92;100.00;101886.53;5234150;28;20392;-68
2022/05/27 04:55:37;;;;;;;11.95;7.85;;;;;;;14.92;100.00;101878.59;5237552;28;20034;-69
2022/05/27 04:58:11;;;;;;;;;;;;;;;15.41;100.00;101896.25;5234837;28;20025;-68
2022/05/27 05:00:45;;;;;;;13.05;7.43;;;;;;;15.02;100.00;101895.31;5235560;28;19913;-67
2022/05/27 05:03:17;;;;;;;14.05;8.25;;;;;;;15.04;100.00;101891.59;5218674;28;20025;-68
2022/05/27 05:05:48;;;;;;;10.60;7.60;;;;;;;15.13;100.00;101897.88;5234502;28;20029;-67
2022/05/27 05:08:36;;;;;;;13.25;8.82;;;;;;;15.30;100.00;101899.88;5236071;28;20034;-67
2022/05/27 05:11:07;;;;;;;13.82;7.70;;;;;;;15.20;100.00;101896.34;5236501;28;20025;-68
2022/05/27 05:13:38;;;;;;;11.02;7.85;;;;;;;15.23;100.00;101905.81;5216876;28;20494;-68
2022/05/27 05:16:10;;;;;;;14.60;8.10;;;;;;;15.28;100.00;101904.44;5236559;28;20464;-68
2022/05/27 05:18:41;;;;;;;15.27;8.18;;;;;;;15.35;100.00;101911.81;5236346;28;20493;-67
2022/05/27 05:21:13;;;;;;;12.82;8.38;;;;;;;15.37;100.00;101907.22;5236371;28;20029;-67
2022/05/27 05:23:44;;;;;;;13.90;7.25;;;;;;;15.35;100.00;101919.75;5218901;28;20044;-67
2022/05/27 05:26:16;;;;;;;15.80;7.88;;;;;;;15.34;100.00;101908.31;5235427;28;20097;-68
2022/05/27 05:28:48;;;;;;;16.67;8.13;;;;;;;15.39;100.00;101910.59;5235562;28;20068;-68
2022/05/27 05:31:19;;;;;;;14.38;7.35;;;;;;;15.39;100.00;101921.97;5235215;28;20338;-68
2022/05/27 05:33:50;;;;;;;17.17;7.53;;;;;;;15.42;100.00;101928.78;5235156;28;20457;-68
2022/05/27 05:36:22;;;;;;;15.25;7.47;;;;;;;15.48;100.00;101931.72;5233661;28;20060;-67
2022/05/27 05:38:54;;;;;;;14.60;7.63;;;;;;;15.49;100.00;101930.78;5233604;28;20100;-67
2022/05/27 05:41:31;;;;;;;11.95;7.20;;;;;;;15.51;100.00;101930.63;5235934;28;20031;-69
2022/05/27 05:44:05;;;;;;;16.15;6.60;;;;;;;15.49;100.00;101932.56;5231528;28;20523;-68
2022/05/27 05:46:38;;;;;;;16.02;7.18;;;;;;;15.47;100.00;101935.34;5233160;28;20029;-68
2022/05/27 05:49:09;;;;;;;;;;;;;;;15.95;100.00;101945.19;5218926;28;20025;-68
2022/05/27 05:51:40;;;;;;;18.20;5.87;;;;;;;15.60;100.00;101944.81;5236155;28;19952;-67
2022/05/27 05:54:12;;;;;;;12.60;6.18;;;;;;;15.61;100.00;101949.97;5233215;28;20387;-68
2022/05/27 05:56:43;;;;;;;14.05;5.82;;;;;;;15.60;100.00;101944.81;5236467;28;20536;-68
2022/05/27 05:59:16;;;;;;;14.43;5.35;;;;;;;15.58;100.00;101947.59;5235452;28;20139;-68
2022/05/27 06:01:48;;;;;;;14.32;5.38;;;;;;;15.58;100.00;101943.16;5233296;28;20112;-68
2022/05/27 06:04:19;;;;;;;10.95;4.82;;;;;;;15.68;100.00;101943.22;5234154;28;20124;-68
2022/05/27 06:06:51;;;;;;;13.02;5.15;;;;;;;15.64;100.00;101939.13;5236495;28;20384;-67
2022/05/27 06:09:27;;;;;;;11.83;4.67;;;;;;;15.71;100.00;101937.63;5235464;28;20125;-68
2022/05/27 06:12:01;;;;;;;11.70;5.60;;;;;;;15.76;100.00;101935.44;5234227;28;20053;-68
2022/05/27 06:14:32;;;;;;;10.95;5.47;;;;;;;15.84;100.00;101926.00;5234917;28;20032;-68
2022/05/27 06:17:04;;;;;;;9.63;4.65;;;;;;;15.90;100.00;101935.97;5216873;28;20380;-68
2022/05/27 06:19:35;;;;;;;11.05;4.97;;;;;;;15.92;100.00;101934.06;5234893;28;20127;-68
2022/05/27 06:22:07;;;;;;;12.35;4.88;;;;;;;16.02;100.00;101934.88;5234513;28;20029;-68
2022/05/27 06:24:38;;;;;;;10.10;4.30;;;;;;;16.08;100.00;101941.44;5231409;28;20033;-69
2022/05/27 06:27:10;;;;;;;11.15;4.43;;;;;;;16.13;100.00;101944.47;5235325;28;20017;-68
2022/05/27 06:35:22;;;;;;;10.10;3.47;;;;;;;16.18;100.00;101956.31;5234482;28;20041;-69
2022/05/27 06:37:53;;;;;;;9.57;3.22;;;;;;;16.15;100.00;101961.03;5234042;28;20485;-69
2022/05/27 06:40:24;;;;;;;8.82;3.33;;;;;;;16.29;100.00;101963.28;5233449;28;20034;-69
2022/05/27 06:42:57;;;;;;;12.82;3.83;;;;;;;16.30;100.00;101963.13;5237000;28;20013;-69
2022/05/27 06:45:28;;;;;;;8.75;3.10;;;;;;;16.40;100.00;101959.63;5237071;28;20044;-69
2022/05/27 06:48:00;;;;;;;7.90;3.33;;;;;;;16.49;100.00;101969.38;5236383;28;20029;-68
2022/05/27 06:50:33;;;;;;;7.05;2.40;;;;;;;16.49;100.00;101958.78;5236961;28;20341;-69
2022/05/27 06:53:04;;;;;;;7.00;2.45;;;;;;;16.42;100.00;101957.69;5234134;28;20061;-69
2022/05/27 06:55:36;;;;;;;9.55;2.72;;;;;;;16.43;100.00;101962.81;5220463;28;20055;-69
2022/05/27 06:58:08;;;;;;;9.00;3.00;;;;;;;16.54;100.00;101967.13;5219107;28;20029;-68
2022/05/27 07:00:39;;;;;;;9.77;2.85;;;;;;;16.64;100.00;101967.97;5235620;28;20084;-70
2022/05/27 07:03:10;;;;;;;9.88;3.10;;;;;;;16.78;100.00;101970.19;5216802;28;20022;-69
2022/05/27 07:05:42;;;;;;;8.18;2.22;;;;;;;16.79;100.00;101968.38;5219097;28;20040;-69
2022/05/27 07:08:13;;;;;;;7.22;2.28;;;;;;;16.95;100.00;101962.47;5219146;28;20024;-69
2022/05/27 07:10:46;;;;;;;8.05;2.55;;;;;;;16.87;100.00;101981.72;5237309;28;20060;-69
2022/05/27 07:13:18;;;;;;;10.70;3.33;;;;;;;16.87;100.00;101970.31;5218961;28;20022;-69
2022/05/27 07:15:49;;;;;;;8.57;2.90;;;;;;;16.97;100.00;101964.00;5234990;28;20036;-69
2022/05/27 07:18:21;;;;;;;8.38;3.20;;;;;;;16.98;100.00;101970.13;5236980;28;20108;-68
2022/05/27 07:20:59;;;;;;;8.57;2.75;;;;;;;16.94;100.00;101963.47;5221212;28;20030;-69
2022/05/27 07:23:31;;;;;;;8.20;2.72;;;;;;;16.94;100.00;101976.69;5235959;28;20083;-69
2022/05/27 07:26:02;;;;;;;10.40;3.08;;;;;;;17.00;100.00;101974.28;5215922;28;20038;-68
2022/05/27 07:28:34;;;;;;;9.88;3.05;;;;;;;17.21;100.00;101975.91;5236126;28;20404;-70
2022/05/27 07:31:05;;;;;;;10.40;2.90;;;;;;;17.26;100.00;101981.59;5235282;28;20403;-69
2022/05/27 07:33:36;;;;;;;5.80;2.08;;;;;;;17.35;100.00;101979.84;5236556;28;20095;-69
2022/05/27 07:36:08;;;;;;;8.32;2.90;;;;;;;17.34;100.00;101976.38;5236541;28;20041;-69
2022/05/27 07:38:39;;;;;;;8.93;2.60;;;;;;;17.40;100.00;101970.50;5236415;28;20041;-69
2022/05/27 07:41:11;;;;;;;8.05;2.80;;;;;;;17.37;100.00;101969.97;5235835;28;20037;-69
2022/05/27 07:43:44;;;;;;;5.45;2.30;;;;;;;17.60;100.00;101973.88;5233958;28;20591;-69
2022/05/27 07:46:16;;;;;;;7.65;2.30;;;;;;;17.83;100.00;101992.03;5234126;28;20033;-68
2022/05/27 07:48:48;;;;;;;9.65;2.95;;;;;;;17.91;100.00;101985.00;5234005;28;20112;-68
2022/05/27 07:51:19;;;;;;;7.80;2.20;;;;;;;17.93;100.00;101990.16;5233476;28;20037;-69
2022/05/27 07:53:50;;;;;;;9.65;2.50;;;;;;;17.96;100.00;101980.09;5234809;28;20497;-69
2022/05/27 07:56:22;;;;;;;10.13;2.70;;;;;;;18.07;100.00;101984.34;5234885;28;20017;-69
2022/05/27 07:58:53;;;;;;;7.93;2.70;;;;;;;18.32;100.00;101987.22;5234056;28;20610;-69
2022/05/27 08:01:24;;;;;;;7.15;2.83;;;;;;;18.32;100.00;101984.56;5234309;28;20412;-70
2022/05/27 08:03:56;;;;;;;7.00;3.00;;;;;;;18.38;100.00;101990.09;5232362;28;20025;-70
2022/05/27 08:06:30;;;;;;;6.13;2.93;;;;;;;18.54;100.00;101986.72;5231492;28;20452;-69
2022/05/27 08:09:02;;;;;;;6.38;2.92;;;;;;;18.55;100.00;101979.59;5235291;28;20038;-69
2022/05/27 08:11:33;;;;;;;6.13;3.03;;;;;;;18.82;100.00;101978.66;5233032;28;20080;-69
2022/05/27 08:14:05;;;;;;;11.43;3.33;;;;;;;18.76;100.00;101982.78;5233053;28;20149;-69
2022/05/27 08:16:41;;;;;;;7.27;2.80;;;;;;;18.49;100.00;101983.72;5232835;28;20405;-69
2022/05/27 08:19:13;;;;;;;7.15;2.45;;;;;;;18.18;100.00;102001.84;5231881;28;20064;-70
2022/05/27 08:21:44;;;;;;;7.57;2.90;;;;;;;17.97;100.00;102005.63;5231089;28;20172;-70
2022/05/27 08:24:16;;;;;;;9.55;2.55;;;;;;;17.74;100.00;102015.78;5232832;28;20041;-70
2022/05/27 08:26:48;;;;;;;8.40;2.47;;;;;;;17.60;100.00;102007.50;5234168;28;20069;-69
2022/05/27 08:29:19;;;;;;;6.63;2.72;;;;;;;17.69;100.00;102004.81;5233984;28;20071;-69
2022/05/27 08:31:50;;;;;;;7.57;2.47;;;;;;;17.82;100.00;102006.28;5233890;28;20046;-69
2022/05/27 08:40:08;;;;;;;7.80;2.47;;;;;;;18.60;100.00;102010.00;5235047;28;20077;-69
2022/05/27 08:43:14;;;;;;;9.15;3.20;;;;;;;18.83;100.00;102002.41;5235613;28;20469;-69
2022/05/27 08:45:55;;;;;;;7.50;2.67;;;;;;;18.91;100.00;102002.44;5243592;28;20390;-69
2022/05/27 08:48:33;;;;;;;12.88;2.78;;;;;;;19.03;100.00;102010.97;5232319;28;20053;-69
2022/05/27 08:51:21;;;;;;;5.97;2.65;;;;;;;18.92;100.00;102003.28;5236130;28;20045;-69
2022/05/27 08:53:58;;;;;;;5.13;2.45;;;;;;;18.88;100.00;102012.56;5234293;28;20476;-69
2022/05/27 08:59:30;;;;;;;4.97;2.27;;;;;;;19.16;100.00;102019.34;5234424;28;20045;-69
2022/05/27 09:02:13;;;;;;;6.88;2.13;;;;;;;18.90;100.00;102021.19;5234714;28;20291;-69
2022/05/27 09:04:58;;;;;;;5.63;2.63;;;;;;;19.15;100.00;102027.47;5234094;28;20120;-69
2022/05/27 09:08:02;;;;;;;8.85;2.50;;;;;;;19.41;100.00;102022.13;5233210;28;20132;-69
2022/05/27 09:10:38;;;;;;;7.18;2.47;;;;;;;19.46;100.00;102027.78;5235272;28;20029;-69
2022/05/27 09:13:20;;;;;;;7.38;2.55;;;;;;;19.40;100.00;102025.78;5217508;28;20029;-70
2022/05/27 09:16:01;;;;;;;5.90;2.88;;;;;;;19.51;100.00;102027.31;5234684;28;20037;-69
2022/05/27 09:19:09;;;;;;;7.00;2.33;;;;;;;20.00;100.00;102012.41;5234965;28;20115;-69
2022/05/27 09:22:05;;;;;;;7.60;1.90;;;;;;;19.91;100.00;102021.34;5233621;28;20104;-69
2022/05/27 09:25:06;;;;;;;8.63;2.55;;;;;;;20.14;100.00;102027.69;5234511;28;20103;-69
2022/05/27 09:28:07;;;;;;;10.07;2.63;;;;;;;19.90;100.00;102038.28;5189783;28;20042;-69
2022/05/27 09:30:39;;;;;;;5.85;2.25;;;;;;;19.55;100.00;102045.47;5216527;28;20045;-69
2022/05/27 09:33:13;;;;;;;5.88;2.15;;;;;;;19.43;100.00;102049.38;5234383;28;20029;-70
2022/05/27 09:36:01;;;;;;;7.00;2.42;;;;;;;19.25;100.00;102065.41;5233746;28;20064;-69
2022/05/27 09:38:34;;;;;;;5.70;1.98;;;;;;;19.03;100.00;102065.94;5231583;28;20034;-69
2022/05/27 09:41:11;;;;;;;10.55;3.30;;;;;;;19.28;100.00;102058.94;5234372;28;20021;-69
2022/05/27 09:43:49;;;;;;;8.10;2.90;;;;;;;19.04;100.00;102067.59;5217011;28;20074;-69
2022/05/27 09:46:27;;;;;;;10.63;2.45;;;;;;;18.98;100.00;102069.06;5217010;28;20394;-69
2022/05/27 09:48:59;;;;;;;7.10;2.92;;;;;;;18.86;100.00;102070.28;5234158;28;20029;-70
2022/05/27 09:51:32;;;;;;;9.88;2.63;;;;;;;19.03;100.00;102072.06;5234609;28;20072;-70
2022/05/27 09:54:15;;;;;;;6.25;2.60;;;;;;;19.13;100.00;102072.81;5234507;28;20416;-70
2022/05/27 09:56:55;;;;;;;8.55;2.55;;;;;;;19.22;100.00;102080.81;5232470;28;20057;-70
2022/05/27 09:59:39;;;;;;;9.13;2.70;;;;;;;19.27;100.00;102073.22;5234304;28;20099;-69
2022/05/27 10:02:13;;;;;;;7.43;2.80;;;;;;;19.41;100.00;102077.94;5233776;28;20112;-68
2022/05/27 10:04:53;;;;;;;8.55;2.78;;;;;;;19.48;100.00;102071.00;5216409;28;20029;-68
2022/05/27 10:07:30;;;;;;;11.43;2.35;;;;;;;19.34;100.00;102083.06;5215298;28;20740;-68
2022/05/27 10:10:28;;;;;;;8.00;2.60;;;;;;;19.38;100.00;102084.41;5232764;28;20469;-69
2022/05/27 10:13:20;;;;;;;10.15;2.72;;;;;;;19.56;100.00;102076.34;5232797;28;20110;-69
2022/05/27 10:15:51;;;;;;;8.60;2.67;;;;;;;19.30;97.24;102063.09;5231526;28;20422;-69
2022/05/27 10:18:26;;;;;;;7.63;2.13;;;;;;;19.75;100.00;102066.50;5231859;28;20079;-69
2022/05/27 10:21:01;;;;;;;6.88;2.63;;;;;;;19.83;95.95;102067.34;5232919;28;20028;-68
2022/05/27 10:23:39;;;;;;;7.88;2.13;;;;;;;19.96;92.81;102071.38;5234062;28;20485;-69
2022/05/27 10:26:32;;;;;;;9.38;3.00;;;;;;;20.57;94.26;102072.84;5231858;28;20065;-69
2022/05/27 10:29:16;;;;;;;5.43;2.10;;;;;;;20.55;81.92;102069.53;5232620;28;20033;-69
2022/05/27 10:31:53;;;;;;;6.40;2.03;;;;;;;20.36;69.13;102060.00;5232515;28;20368;-69
2022/05/27 10:34:45;;;;;;;9.57;2.83;;;;;;;20.50;68.78;102067.38;5231572;28;20021;-68
2022/05/27 10:37:28;;;;;;;8.13;2.42;;;;;;;20.37;63.84;102072.28;5232465;28;20037;-69
2022/05/27 10:40:10;;;;;;;10.05;2.17;;;;;;;20.19;51.08;102064.44;5233295;28;20053;-68
2022/05/27 10:42:46;;;;;;;11.70;2.58;;;;;;;20.31;52.85;102065.81;5233606;28;20096;-69
2022/05/27 10:45:26;;;;;;;9.90;2.78;;;;;;;20.44;52.60;102067.97;5232876;28;20021;-69
2022/05/27 10:48:10;;;;;;;10.98;2.80;;;;;;;20.11;53.31;102081.22;5232274;28;20109;-69
2022/05/27 10:51:30;;;;;;;7.82;2.45;;;;;;;20.10;53.58;102076.91;5233012;28;20102;-69
2022/05/27 10:54:26;;;;;;;7.65;2.55;;;;;;;19.48;51.39;102086.97;5170596;28;20481;-69
2022/05/27 11:04:23;;;;;;;6.22;2.20;;;;;;;19.97;50.41;102081.88;5231689;28;20037;-70
2022/05/27 11:07:03;;;;;;;8.00;2.65;;;;;;;20.25;48.96;102089.59;5130218;29;20066;-71
2022/05/27 11:09:59;;;;;;;11.13;3.10;;;;;;;20.47;48.55;102072.97;5130009;29;21044;-70
2022/05/27 11:16:22;;;;;;;6.68;2.38;;;;;;;20.55;45.10;102074.84;5233207;28;20138;-69
2022/05/27 11:19:18;;;;;;;10.32;2.70;;;;;;;20.63;45.00;102069.53;5229092;28;20021;-70
2022/05/27 11:21:53;;;;;;;7.00;2.40;;;;;;;20.42;45.61;102083.31;5231632;28;20112;-69
2022/05/27 11:24:33;;;;;;;8.30;2.20;;;;;;;20.31;47.47;102073.81;5232680;28;20041;-69
2022/05/27 11:27:11;;;;;;;9.57;2.45;;;;;;;20.33;46.67;102074.44;5232312;28;20556;-69
2022/05/27 11:29:53;;;;;;;9.02;2.45;;;;;;;20.36;46.76;102071.47;5234097;28;20025;-70
2022/05/27 11:32:36;;;;;;;8.07;2.75;;;;;;;20.40;47.23;102078.13;5237126;28;20540;-69
2022/05/27 11:35:30;;;;;;;12.85;2.65;;;;;;;20.06;47.48;102080.88;5237352;28;20488;-69
2022/05/27 11:38:29;;;;;;;;;;;;;;;20.52;46.37;102091.16;5236058;28;20041;-69
2022/05/27 11:41:17;;;;;;;8.02;2.30;;;;;;;19.53;47.97;102094.44;5236554;28;19980;-69
2022/05/27 11:44:09;;;;;;;11.77;3.35;;;;;;;19.55;48.52;102101.28;5236269;28;20080;-69
2022/05/27 11:46:47;;;;;;;8.88;2.50;;;;;;;19.57;47.16;102090.47;5236900;28;20041;-69
2022/05/27 11:49:37;;;;;;;6.75;2.58;;;;;;;20.07;51.83;102095.03;5236322;28;20028;-70
2022/05/27 11:52:29;;;;;;;10.30;2.78;;;;;;;20.33;46.29;102101.06;5235790;28;20108;-70
2022/05/27 11:55:14;;;;;;;10.50;2.58;;;;;;;20.10;45.80;102098.19;5233444;28;20035;-70
2022/05/27 11:58:07;;;;;;;5.97;2.22;;;;;;;20.45;42.52;102098.09;5235836;28;20034;-70
2022/05/27 12:00:45;;;;;;;10.73;2.83;;;;;;;20.23;42.04;102092.41;5235932;28;20029;-69
2022/05/27 12:03:24;;;;;;;8.25;2.83;;;;;;;20.25;44.93;102093.06;5234893;28;20040;-69
2022/05/27 12:06:05;;;;;;;12.45;2.88;;;;;;;20.15;45.25;102098.56;5235648;28;20037;-70
2022/05/27 12:08:55;;;;;;;8.98;2.30;;;;;;;19.53;45.42;102105.09;5234832;28;20092;-70
2022/05/27 12:11:52;;;;;;;8.63;2.58;;;;;;;19.93;48.04;102091.19;5234575;28;20376;-70
2022/05/27 12:14:38;;;;;;;11.80;3.30;;;;;;;20.12;45.78;102112.19;5235502;28;20057;-70
2022/05/27 12:17:14;;;;;;;12.35;2.72;;;;;;;20.16;46.09;102094.91;5233458;28;20100;-70
2022/05/27 12:19:57;;;;;;;10.30;2.42;;;;;;;20.36;44.46;102098.09;5236570;28;20059;-70
2022/05/27 12:22:32;;;;;;;;;;;;;;;20.88;43.82;102097.81;5235657;28;20081;-70
2022/05/27 12:25:13;;;;;;;9.55;2.42;;;;;;;20.51;43.79;102090.31;5235706;28;20011;-69
2022/05/27 12:27:44;;;;;;;6.57;2.40;;;;;;;20.57;44.23;102089.66;5235834;28;20084;-70
2022/05/27 12:30:19;;;;;;;5.27;2.00;;;;;;;20.42;44.44;102104.59;5235882;28;20025;-69
2022/05/27 12:32:51;;;;;;;8.80;2.53;;;;;;;20.36;41.95;102094.59;5235420;28;20388;-69
2022/05/27 12:35:31;;;;;;;8.95;2.47;;;;;;;20.55;44.96;102099.63;5235429;28;20144;-69
2022/05/27 12:38:12;;;;;;;12.18;2.83;;;;;;;20.89;44.92;102096.00;5235356;28;20046;-69